Time;durP1;ratioP1;P1;durP2;ratioP2;P2;SDS_P1;SDS_P2;PMS_P1;PMS_P2;Temp;Humidity;BMP_temperature;BMP_pressure;BME280_temperature;BME280_humidity;BME280_pressure;Samples;Min_cycle;Max_cycle;Signal;HPM_P1;HPM_P2
2023/01/14 00:00:25;;;;;;;1.38;0.80;;;24.50;48.70;;;;;;4955284;28;20203;-55
2023/01/14 00:02:55;;;;;;;2.33;0.82;;;24.50;48.70;;;;;;4954351;29;20195;-54
2023/01/14 00:05:26;;;;;;;1.30;1.00;;;24.50;48.60;;;;;;4955230;28;20234;-55
2023/01/14 00:07:57;;;;;;;2.10;0.75;;;24.60;48.70;;;;;;4955343;28;20210;-54
2023/01/14 00:10:27;;;;;;;2.55;0.82;;;24.60;48.60;;;;;;4955243;28;20202;-54
2023/01/14 00:12:59;;;;;;;1.77;1.00;;;24.60;48.60;;;;;;4955195;28;20590;-54
2023/01/14 00:15:32;;;;;;;2.03;0.85;;;24.60;48.50;;;;;;4954871;28;20219;-50
2023/01/14 00:18:02;;;;;;;2.22;0.80;;;24.70;48.60;;;;;;4955122;28;20214;-53
2023/01/14 00:20:33;;;;;;;1.52;0.85;;;24.70;48.50;;;;;;4954351;28;20674;-54
2023/01/14 00:23:04;;;;;;;1.48;0.90;;;24.70;48.40;;;;;;4955058;28;20202;-51
2023/01/14 00:25:38;;;;;;;1.67;0.90;;;24.70;48.40;;;;;;4955237;28;20227;-53
2023/01/14 00:28:09;;;;;;;2.45;0.80;;;24.80;48.40;;;;;;4955721;28;20389;-55
2023/01/14 00:30:42;;;;;;;1.55;0.90;;;24.80;48.50;;;;;;4954968;28;20198;-52
2023/01/14 00:33:13;;;;;;;1.40;0.60;;;24.80;48.40;;;;;;4955005;28;20211;-52
2023/01/14 00:35:44;;;;;;;2.00;0.98;;;24.90;48.40;;;;;;4954728;28;20219;-54
2023/01/14 00:38:15;;;;;;;1.60;0.85;;;24.90;48.40;;;;;;4954609;28;20206;-52
2023/01/14 00:40:45;;;;;;;2.25;0.80;;;24.90;48.40;;;;;;4954597;28;20194;-53
2023/01/14 00:43:16;;;;;;;2.08;1.00;;;24.90;48.40;;;;;;4954663;28;20246;-53
2023/01/14 00:45:48;;;;;;;3.17;1.00;;;24.90;48.30;;;;;;4954647;28;20238;-51
2023/01/14 00:48:19;;;;;;;1.25;0.90;;;25.00;48.40;;;;;;4954606;28;20203;-54
2023/01/14 00:50:50;;;;;;;1.50;0.73;;;25.00;48.40;;;;;;4954362;28;20622;-54
2023/01/14 00:53:21;;;;;;;2.15;0.80;;;25.00;48.40;;;;;;4954324;28;20226;-53
2023/01/14 00:55:51;;;;;;;1.17;0.77;;;25.10;48.40;;;;;;4954471;28;20223;-51
2023/01/14 00:58:22;;;;;;;1.58;0.70;;;25.10;48.40;;;;;;4954237;28;20655;-52
2023/01/14 01:00:55;;;;;;;1.55;0.90;;;25.10;48.30;;;;;;4953963;28;20206;-54
2023/01/14 01:03:26;;;;;;;2.20;1.00;;;25.10;48.30;;;;;;4954261;28;20573;-52
2023/01/14 01:05:57;;;;;;;2.55;0.90;;;25.20;48.20;;;;;;4954175;28;21361;-51
2023/01/14 01:08:28;;;;;;;1.67;0.90;;;25.20;48.20;;;;;;4953800;28;20579;-54
2023/01/14 01:10:59;;;;;;;1.35;0.80;;;25.20;48.20;;;;;;4953402;28;20198;-50
2023/01/14 01:13:31;;;;;;;1.38;0.80;;;25.20;48.10;;;;;;4953491;28;20210;-53
2023/01/14 01:16:06;;;;;;;2.10;1.00;;;25.30;48.10;;;;;;4953536;28;20219;-52
2023/01/14 01:18:38;;;;;;;0.88;0.70;;;25.30;48.20;;;;;;4954042;28;20202;-53
2023/01/14 01:21:10;;;;;;;3.75;1.25;;;25.30;48.10;;;;;;4954204;28;20571;-51
2023/01/14 01:23:41;;;;;;;2.13;1.08;;;25.30;48.10;;;;;;4953845;28;20202;-52
2023/01/14 01:26:15;;;;;;;1.55;0.73;;;25.30;48.10;;;;;;4956371;28;20223;-52
2023/01/14 01:28:49;;;;;;;1.17;0.80;;;25.30;48.20;;;;;;4954357;28;20238;-53
2023/01/14 01:31:23;;;;;;;1.08;0.80;;;25.40;48.20;;;;;;4953663;28;20209;-51
2023/01/14 01:33:53;;;;;;;1.67;0.80;;;25.40;48.10;;;;;;4953932;28;20203;-53
2023/01/14 01:36:26;;;;;;;1.55;0.90;;;25.40;48.00;;;;;;4954020;28;20219;-53
2023/01/14 01:38:57;;;;;;;2.20;0.80;;;25.40;48.00;;;;;;4970448;28;20195;-51
2023/01/14 01:41:29;;;;;;;2.13;0.80;;;25.50;48.00;;;;;;4973224;28;20198;-50
2023/01/14 01:44:07;;;;;;;1.42;0.63;;;25.50;47.90;;;;;;4972880;28;20202;-52
2023/01/14 01:46:40;;;;;;;2.15;1.00;;;25.50;47.80;;;;;;4972385;28;20230;-51
2023/01/14 01:49:14;;;;;;;1.10;0.80;;;25.60;47.70;;;;;;4972821;28;20205;-53
2023/01/14 01:51:49;;;;;;;0.90;0.73;;;25.60;47.70;;;;;;4972385;28;20198;-50
2023/01/14 01:54:21;;;;;;;1.33;0.88;;;25.60;47.80;;;;;;4972979;28;20208;-50
2023/01/14 01:56:53;;;;;;;1.73;0.90;;;25.60;47.80;;;;;;4972898;28;20218;-51
2023/01/14 01:59:26;;;;;;;1.98;0.90;;;25.60;47.70;;;;;;4972339;28;20209;-53
2023/01/14 02:01:59;;;;;;;1.85;0.82;;;25.60;47.70;;;;;;4955860;28;20218;-54
2023/01/14 02:04:30;;;;;;;1.52;0.90;;;25.60;47.60;;;;;;4953142;28;20199;-51
2023/01/14 02:07:01;;;;;;;0.65;0.65;;;25.60;47.60;;;;;;4952294;28;20234;-49
2023/01/14 02:09:32;;;;;;;2.10;1.00;;;25.70;47.70;;;;;;4953361;28;20198;-50
2023/01/14 02:12:22;;;;;;;2.15;0.85;;;25.70;47.60;;;;;;4953172;28;20199;-51
2023/01/14 02:15:08;;;;;;;1.70;0.80;;;25.70;47.60;;;;;;4953342;28;20213;-50
2023/01/14 02:17:55;;;;;;;1.55;0.82;;;25.80;47.50;;;;;;4953534;28;20655;-53
2023/01/14 02:20:29;;;;;;;1.58;1.10;;;25.80;47.30;;;;;;4953181;28;20658;-50
2023/01/14 02:23:41;;;;;;;1.85;0.73;;;25.80;47.30;;;;;;4952997;28;20568;-53
2023/01/14 02:26:44;;;;;;;2.42;0.90;;;25.80;47.30;;;;;;4952941;28;20226;-54
2023/01/14 02:29:52;;;;;;;1.38;0.90;;;25.80;47.20;;;;;;4953165;28;20560;-52
2023/01/14 02:32:29;;;;;;;2.60;0.82;;;25.90;47.20;;;;;;4934147;29;20207;-53
2023/01/14 02:35:06;;;;;;;1.17;0.75;;;25.90;47.20;;;;;;4934019;29;20671;-52
2023/01/14 02:37:45;;;;;;;1.80;0.80;;;25.90;47.10;;;;;;4934045;29;20203;-49
2023/01/14 02:40:22;;;;;;;2.72;1.00;;;25.90;47.10;;;;;;4933863;29;20199;-49
2023/01/14 02:45:50;;;;;;;1.42;0.70;;;25.90;47.20;;;;;;4937948;29;20335;-52
2023/01/14 02:48:24;;;;;;;1.58;0.70;;;25.90;47.20;;;;;;4937678;29;20555;-52
2023/01/14 02:50:55;;;;;;;1.15;0.80;;;26.00;47.30;;;;;;4937320;29;20207;-52
2023/01/14 02:53:26;;;;;;;1.13;0.77;;;26.00;47.30;;;;;;4937333;29;20203;-49
2023/01/14 02:55:58;;;;;;;1.70;0.85;;;26.00;47.30;;;;;;4937333;29;20675;-49
2023/01/14 02:58:53;;;;;;;2.40;0.90;;;26.00;47.10;;;;;;4937206;29;20615;-54
2023/01/14 03:01:43;;;;;;;1.13;0.80;;;26.10;47.10;;;;;;4948907;29;20214;-51
2023/01/14 03:04:37;;;;;;;1.88;1.00;;;26.10;47.00;;;;;;4956304;28;20214;-53
2023/01/14 03:07:19;;;;;;;2.60;0.82;;;26.10;47.00;;;;;;4956142;28;20230;-53
2023/01/14 03:10:00;;;;;;;1.50;0.88;;;26.10;46.90;;;;;;4956748;28;21255;-51
2023/01/14 03:12:39;;;;;;;1.63;0.88;;;26.20;47.00;;;;;;4956655;28;20206;-51
2023/01/14 03:15:19;;;;;;;1.35;1.00;;;26.20;47.00;;;;;;4955947;28;20573;-53
2023/01/14 03:17:56;;;;;;;2.33;0.90;;;26.20;47.10;;;;;;4956198;28;20561;-53
2023/01/14 03:20:30;;;;;;;0.80;0.70;;;26.20;47.10;;;;;;4958776;28;20199;-50
2023/01/14 03:23:03;;;;;;;1.98;0.73;;;26.20;47.10;;;;;;4956283;28;20209;-52
2023/01/14 03:25:37;;;;;;;1.30;0.85;;;26.20;47.10;;;;;;4955965;28;20238;-51
2023/01/14 03:28:10;;;;;;;1.88;0.70;;;26.30;47.10;;;;;;4956538;29;20244;-52
2023/01/14 03:30:45;;;;;;;1.48;0.90;;;26.30;47.10;;;;;;4956108;28;20590;-52
2023/01/14 03:33:24;;;;;;;1.38;0.93;;;26.30;47.10;;;;;;4956026;28;20206;-55
2023/01/14 03:35:58;;;;;;;1.75;0.80;;;26.30;47.00;;;;;;4955673;28;20238;-55
2023/01/14 03:38:32;;;;;;;1.30;0.85;;;26.40;47.10;;;;;;4955647;28;20782;-53
2023/01/14 03:41:05;;;;;;;1.60;0.90;;;26.40;47.00;;;;;;4956951;28;20201;-52
2023/01/14 03:43:43;;;;;;;1.73;0.90;;;26.40;47.00;;;;;;4953686;29;20231;-54
2023/01/14 03:46:14;;;;;;;1.30;0.80;;;26.40;46.90;;;;;;4955641;28;20215;-51
2023/01/14 03:48:47;;;;;;;1.58;0.88;;;26.50;47.00;;;;;;4955867;28;20206;-54
2023/01/14 03:51:24;;;;;;;1.10;0.80;;;26.50;47.10;;;;;;4955585;28;20199;-51
2023/01/14 03:54:04;;;;;;;1.63;0.95;;;26.50;47.10;;;;;;4955630;28;20198;-52
2023/01/14 03:56:41;;;;;;;1.33;0.70;;;26.50;47.00;;;;;;4955301;28;20222;-51
2023/01/14 03:59:17;;;;;;;1.67;0.90;;;26.50;47.10;;;;;;4955437;28;20685;-54
2023/01/14 04:01:50;;;;;;;2.13;1.00;;;26.50;47.10;;;;;;4955370;28;20203;-53
2023/01/14 04:04:24;;;;;;;2.47;1.00;;;26.50;47.20;;;;;;4955705;28;20203;-56
2023/01/14 04:06:55;;;;;;;3.40;1.27;;;26.50;47.20;;;;;;4954969;28;20234;-54
2023/01/14 04:09:25;;;;;;;1.35;0.95;;;26.60;47.20;;;;;;4955491;28;20195;-55
2023/01/14 04:11:56;;;;;;;2.17;0.90;;;26.60;47.20;;;;;;4955240;28;20199;-56
2023/01/14 04:17:14;;;;;;;3.95;0.90;;;26.60;47.00;;;;;;4954916;28;20222;-55
2023/01/14 04:19:46;;;;;;;3.55;1.10;;;26.60;47.00;;;;;;4954892;28;20572;-57
2023/01/14 04:22:17;;;;;;;1.88;0.73;;;26.60;46.80;;;;;;4955023;28;20237;-56
2023/01/14 04:24:47;;;;;;;1.27;0.77;;;26.60;46.80;;;;;;4955186;28;20207;-57
2023/01/14 04:27:18;;;;;;;1.83;0.93;;;26.60;46.90;;;;;;4955713;28;20231;-55
2023/01/14 04:29:49;;;;;;;1.88;0.80;;;26.60;46.80;;;;;;4954890;28;20199;-52
2023/01/14 04:32:20;;;;;;;1.85;0.80;;;26.70;46.90;;;;;;4936156;29;20211;-54
2023/01/14 04:34:52;;;;;;;1.45;0.82;;;26.70;47.00;;;;;;4935836;29;20199;-55
2023/01/14 04:37:23;;;;;;;1.77;0.80;;;26.70;46.90;;;;;;4935693;29;20227;-55
2023/01/14 04:39:54;;;;;;;2.53;1.20;;;26.70;46.90;;;;;;4936040;29;20200;-54
2023/01/14 04:42:31;;;;;;;1.70;0.82;;;26.80;46.90;;;;;;4935957;29;20200;-57
2023/01/14 04:45:02;;;;;;;3.17;1.10;;;26.80;46.70;;;;;;4935412;29;20281;-55
2023/01/14 04:47:34;;;;;;;1.92;0.93;;;26.80;46.70;;;;;;4935044;29;20286;-53
2023/01/14 04:52:50;;;;;;;2.13;0.80;;;26.80;46.60;;;;;;4935174;29;20579;-52
2023/01/14 04:55:21;;;;;;;1.95;1.05;;;26.90;46.70;;;;;;4935491;29;20195;-54
2023/01/14 04:57:51;;;;;;;1.77;0.80;;;26.90;46.60;;;;;;4935729;29;20211;-56
2023/01/14 05:00:22;;;;;;;2.15;0.90;;;26.90;46.60;;;;;;4939310;29;20667;-54
2023/01/14 05:02:53;;;;;;;3.60;0.95;;;26.90;46.50;;;;;;4954695;28;20574;-55
2023/01/14 05:05:25;;;;;;;2.25;0.95;;;26.90;46.40;;;;;;4954353;28;20257;-53
2023/01/14 05:07:56;;;;;;;1.67;1.00;;;26.90;46.30;;;;;;4953755;28;20238;-55
2023/01/14 05:10:27;;;;;;;1.63;0.90;;;26.90;46.40;;;;;;4954630;28;20199;-51
2023/01/14 05:13:02;;;;;;;2.33;1.13;;;26.90;46.30;;;;;;4954516;28;20289;-54
2023/01/14 05:15:35;;;;;;;2.45;0.93;;;27.00;46.40;;;;;;4954143;28;20222;-52
2023/01/14 05:18:07;;;;;;;2.40;0.95;;;27.00;46.30;;;;;;4955438;28;20539;-55
2023/01/14 05:20:39;;;;;;;2.90;1.10;;;27.00;46.30;;;;;;4954542;28;20207;-57
2023/01/14 05:23:13;;;;;;;3.40;0.90;;;27.00;46.30;;;;;;4954200;28;20597;-57
2023/01/14 05:25:45;;;;;;;1.48;0.80;;;27.00;46.20;;;;;;4954227;28;20227;-53
2023/01/14 05:28:17;;;;;;;1.45;0.90;;;27.00;46.20;;;;;;4954437;29;20238;-55
2023/01/14 05:30:48;;;;;;;3.03;1.30;;;27.00;46.10;;;;;;4953844;29;20214;-56
2023/01/14 05:33:18;;;;;;;1.17;1.00;;;27.00;46.00;;;;;;4954096;28;20202;-55
2023/01/14 05:35:51;;;;;;;2.20;0.90;;;26.90;46.00;;;;;;4954048;28;20219;-56
2023/01/14 05:38:22;;;;;;;2.05;0.90;;;26.90;45.80;;;;;;4953806;28;20198;-55
2023/01/14 05:40:52;;;;;;;1.73;0.93;;;26.90;45.90;;;;;;4954088;28;20205;-54
2023/01/14 05:46:11;;;;;;;2.40;1.27;;;26.90;45.90;;;;;;4953964;28;20733;-53
2023/01/14 05:48:42;;;;;;;1.38;1.00;;;26.90;45.80;;;;;;4951665;29;20227;-57
2023/01/14 05:51:16;;;;;;;1.77;1.00;;;26.90;45.90;;;;;;4953654;28;20659;-55
2023/01/14 05:53:47;;;;;;;1.55;1.00;;;26.90;45.90;;;;;;4953621;28;20240;-54
2023/01/14 05:56:18;;;;;;;1.88;0.93;;;26.90;46.60;;;;;;4953061;28;20219;-57
2023/01/14 05:58:49;;;;;;;2.80;1.00;;;26.90;46.10;;;;;;4953376;28;20650;-56
2023/01/14 06:06:55;;;;;;;1.20;0.95;;;26.80;45.90;;;;;;4953505;28;20238;-57
2023/01/14 06:09:25;;;;;;;2.88;1.00;;;26.80;45.90;;;;;;4953608;28;20205;-56
2023/01/14 06:12:03;;;;;;;1.95;0.90;;;26.80;45.90;;;;;;4953430;28;20199;-53
2023/01/14 06:14:35;;;;;;;1.95;0.90;;;26.80;45.80;;;;;;4951228;28;20202;-57
2023/01/14 06:17:09;;;;;;;1.85;1.10;;;26.80;45.90;;;;;;4953188;28;20218;-56
2023/01/14 06:19:39;;;;;;;2.88;0.90;;;26.80;45.90;;;;;;4952468;28;20289;-56
2023/01/14 06:22:12;;;;;;;1.77;1.00;;;26.80;45.90;;;;;;4952872;28;20195;-56
2023/01/14 06:24:42;;;;;;;1.67;0.90;;;26.70;45.90;;;;;;4952750;28;20199;-57
2023/01/14 06:27:13;;;;;;;1.73;0.77;;;26.70;45.90;;;;;;4952954;28;20219;-57
2023/01/14 06:29:44;;;;;;;1.55;0.90;;;26.70;46.00;;;;;;4953284;28;20225;-56
2023/01/14 06:32:14;;;;;;;1.27;1.10;;;26.70;46.00;;;;;;4953255;28;20579;-55
2023/01/14 06:34:45;;;;;;;2.30;1.10;;;26.70;46.00;;;;;;4952989;28;20198;-57
2023/01/14 06:37:18;;;;;;;1.13;0.80;;;26.70;46.00;;;;;;4952639;28;20243;-56
2023/01/14 06:39:48;;;;;;;1.70;1.10;;;26.60;46.00;;;;;;4953078;28;20659;-55
2023/01/14 06:42:19;;;;;;;1.85;0.98;;;26.70;45.90;;;;;;4952803;28;20202;-53
2023/01/14 06:44:50;;;;;;;2.15;0.80;;;26.60;45.80;;;;;;4953043;28;20203;-56
2023/01/14 06:47:20;;;;;;;1.20;0.70;;;26.60;45.90;;;;;;4952839;28;20572;-57
2023/01/14 06:49:51;;;;;;;1.60;0.80;;;26.60;45.90;;;;;;4952897;28;20205;-57
2023/01/14 06:52:24;;;;;;;1.40;1.00;;;26.60;46.00;;;;;;4952918;28;20203;-56
2023/01/14 06:54:55;;;;;;;1.33;1.00;;;26.50;45.90;;;;;;4953105;28;20672;-57
2023/01/14 06:57:26;;;;;;;1.30;0.90;;;26.50;45.90;;;;;;4952586;28;20227;-54
2023/01/14 06:59:57;;;;;;;1.00;0.80;;;26.50;45.90;;;;;;4952613;28;20651;-58
2023/01/14 07:02:28;;;;;;;2.35;0.90;;;26.50;46.00;;;;;;4952580;28;20221;-57
2023/01/14 07:04:58;;;;;;;1.13;0.70;;;26.50;46.00;;;;;;4952914;28;20203;-57
2023/01/14 07:07:31;;;;;;;1.70;0.90;;;26.50;46.00;;;;;;4952506;28;20227;-57
2023/01/14 07:10:02;;;;;;;0.68;0.68;;;26.50;46.10;;;;;;4952746;28;20194;-55
2023/01/14 07:12:33;;;;;;;1.88;0.80;;;26.40;46.10;;;;;;4952362;28;20651;-55
2023/01/14 07:15:03;;;;;;;1.33;0.85;;;26.50;46.10;;;;;;4952696;28;20234;-58
2023/01/14 07:17:34;;;;;;;1.15;0.70;;;26.40;46.10;;;;;;4952806;28;20687;-57
2023/01/14 07:20:05;;;;;;;1.30;0.90;;;26.40;46.10;;;;;;4952240;28;20214;-57
2023/01/14 07:22:37;;;;;;;1.92;0.90;;;26.40;46.10;;;;;;4952425;28;20199;-58
2023/01/14 07:25:09;;;;;;;2.78;0.98;;;26.40;46.10;;;;;;4954849;28;20195;-58
2023/01/14 07:27:40;;;;;;;2.35;0.90;;;26.30;46.10;;;;;;4952811;28;20219;-57
2023/01/14 07:30:12;;;;;;;1.98;1.10;;;26.30;46.10;;;;;;4953674;28;20202;-57
2023/01/14 07:32:42;;;;;;;1.02;0.80;;;26.30;46.10;;;;;;4956009;28;20202;-58
2023/01/14 07:35:13;;;;;;;1.38;0.75;;;26.30;46.10;;;;;;4956540;28;20643;-58
2023/01/14 07:37:46;;;;;;;1.02;0.68;;;26.30;46.10;;;;;;4955809;28;20210;-58
2023/01/14 07:40:16;;;;;;;1.98;0.90;;;26.30;46.10;;;;;;4955795;28;20203;-55
2023/01/14 07:42:47;;;;;;;1.10;0.85;;;26.20;46.10;;;;;;4955119;28;20195;-58
2023/01/14 07:45:18;;;;;;;1.42;0.80;;;26.20;46.10;;;;;;4955491;28;20577;-57
2023/01/14 07:47:49;;;;;;;0.85;0.85;;;26.20;46.20;;;;;;4955229;28;20227;-57
2023/01/14 07:50:20;;;;;;;1.40;0.80;;;26.20;46.20;;;;;;4956049;28;20668;-57
2023/01/14 07:52:58;;;;;;;1.60;0.80;;;26.20;46.20;;;;;;4957918;28;20572;-57
2023/01/14 07:55:30;;;;;;;1.35;0.70;;;26.20;46.20;;;;;;4955274;28;20222;-57
2023/01/14 07:58:01;;;;;;;0.95;0.80;;;26.20;46.20;;;;;;4955274;29;20985;-57
2023/01/14 08:00:32;;;;;;;1.33;0.80;;;26.20;46.20;;;;;;4955231;28;20206;-57
2023/01/14 08:03:03;;;;;;;1.50;0.90;;;26.20;46.20;;;;;;4955243;28;20199;-58
2023/01/14 08:05:35;;;;;;;1.52;0.80;;;26.20;46.20;;;;;;4954921;28;20221;-57
2023/01/14 08:08:08;;;;;;;1.55;0.90;;;26.20;46.30;;;;;;4955173;28;20233;-57
2023/01/14 08:10:38;;;;;;;1.25;0.82;;;26.10;46.20;;;;;;4955655;28;20203;-57
2023/01/14 08:13:13;;;;;;;0.95;0.80;;;26.10;46.20;;;;;;4955674;28;20207;-58
2023/01/14 08:15:43;;;;;;;1.33;0.80;;;26.10;46.20;;;;;;4955013;28;20222;-55
2023/01/14 08:18:14;;;;;;;0.90;0.70;;;26.00;46.20;;;;;;4955005;28;20203;-58
2023/01/14 08:20:45;;;;;;;1.63;0.90;;;26.10;46.30;;;;;;4955270;28;20199;-56
2023/01/14 08:23:17;;;;;;;0.75;0.60;;;26.00;46.30;;;;;;4955046;28;20205;-54
2023/01/14 08:25:48;;;;;;;1.00;0.90;;;26.00;46.90;;;;;;4954684;28;20219;-57
2023/01/14 08:28:19;;;;;;;0.75;0.70;;;26.00;46.30;;;;;;4955062;28;20887;-55
2023/01/14 08:30:49;;;;;;;0.68;0.60;;;26.00;46.30;;;;;;4954883;28;20206;-56
2023/01/14 08:33:20;;;;;;;1.60;1.10;;;26.00;46.40;;;;;;4954706;28;20209;-57
2023/01/14 08:35:50;;;;;;;1.27;0.80;;;26.00;46.40;;;;;;4953473;28;20599;-55
2023/01/14 08:38:23;;;;;;;1.25;0.80;;;25.90;46.30;;;;;;4952572;28;20226;-54
2023/01/14 08:40:54;;;;;;;1.17;0.85;;;25.90;46.40;;;;;;4951425;28;20210;-53
2023/01/14 08:43:25;;;;;;;1.40;0.80;;;25.90;46.30;;;;;;4954161;28;20555;-56
2023/01/14 08:45:55;;;;;;;1.05;0.80;;;25.90;46.30;;;;;;4954234;28;20218;-54
2023/01/14 08:48:26;;;;;;;0.73;0.60;;;25.90;46.30;;;;;;4954522;28;20215;-55
2023/01/14 08:51:00;;;;;;;1.38;0.70;;;25.90;46.30;;;;;;4954327;28;20541;-52
2023/01/14 08:53:34;;;;;;;1.13;0.80;;;25.80;46.30;;;;;;4954125;28;20235;-55
2023/01/14 08:56:06;;;;;;;1.13;0.80;;;25.80;46.30;;;;;;4954401;28;20230;-56
2023/01/14 08:58:37;;;;;;;1.27;0.88;;;25.80;46.30;;;;;;4954445;28;20199;-57
2023/01/14 09:01:09;;;;;;;1.63;0.70;;;25.80;46.40;;;;;;4954383;28;20195;-55
2023/01/14 09:03:42;;;;;;;1.50;0.77;;;25.80;46.40;;;;;;4954335;28;20315;-56
2023/01/14 09:06:14;;;;;;;1.73;0.80;;;25.70;46.40;;;;;;4953885;28;20822;-57
2023/01/14 09:17:12;;;;;;;1.80;0.80;;;25.70;46.40;;;;;;4956550;28;20709;-57
2023/01/14 09:19:47;;;;;;;1.40;0.80;;;25.70;46.40;;;;;;4954145;28;20213;-55
2023/01/14 09:22:20;;;;;;;0.82;0.70;;;25.70;46.40;;;;;;4954152;28;20555;-56
2023/01/14 09:24:52;;;;;;;0.85;0.70;;;25.60;46.30;;;;;;4954133;29;20722;-55
2023/01/14 09:27:25;;;;;;;1.40;1.00;;;25.60;46.40;;;;;;4953996;28;20230;-53
2023/01/14 09:29:56;;;;;;;2.05;0.90;;;25.60;46.50;;;;;;4949931;29;20309;-56
2023/01/14 09:32:27;;;;;;;1.10;0.80;;;25.60;46.60;;;;;;4950206;28;20191;-55
2023/01/14 09:34:57;;;;;;;1.48;0.88;;;25.50;46.60;;;;;;4953432;28;20190;-55
2023/01/14 09:40:16;;;;;;;0.77;0.68;;;25.50;46.60;;;;;;4946895;28;20572;-56
2023/01/14 09:42:50;;;;;;;1.05;0.80;;;25.50;46.60;;;;;;4952175;29;20460;-56
2023/01/14 09:45:27;;;;;;;0.65;0.60;;;25.50;46.70;;;;;;4951948;28;20674;-56
2023/01/14 09:48:00;;;;;;;0.70;0.70;;;25.50;46.60;;;;;;4951826;28;20194;-56
2023/01/14 09:50:39;;;;;;;1.00;0.63;;;25.50;46.70;;;;;;4952626;28;20323;-56
2023/01/14 09:53:22;;;;;;;1.02;0.77;;;25.50;46.70;;;;;;4953172;28;20561;-56
2023/01/14 09:55:57;;;;;;;1.38;0.90;;;25.40;46.60;;;;;;4952500;28;20245;-56
2023/01/14 09:58:35;;;;;;;0.85;0.82;;;25.40;46.70;;;;;;4949237;29;20262;-56
2023/01/14 10:01:16;;;;;;;1.65;0.80;;;25.40;46.60;;;;;;4952409;28;20198;-56
2023/01/14 10:03:51;;;;;;;0.82;0.70;;;25.40;46.60;;;;;;4952380;28;20206;-54
2023/01/14 10:06:22;;;;;;;0.73;0.70;;;25.40;46.70;;;;;;4953006;28;20218;-54
2023/01/14 10:08:59;;;;;;;1.20;0.80;;;25.30;46.60;;;;;;4952280;28;20226;-55
2023/01/14 10:11:35;;;;;;;1.50;0.90;;;25.30;46.60;;;;;;4952087;28;20202;-54
2023/01/14 10:14:11;;;;;;;0.85;0.60;;;25.30;46.70;;;;;;4952257;28;20202;-55
2023/01/14 10:16:45;;;;;;;1.52;0.95;;;25.30;46.70;;;;;;4952237;28;20215;-56
2023/01/14 10:19:19;;;;;;;2.05;0.88;;;25.30;46.70;;;;;;4952224;28;20206;-53
2023/01/14 10:21:52;;;;;;;1.00;0.77;;;25.20;46.60;;;;;;4951789;28;20199;-55
2023/01/14 10:24:23;;;;;;;0.80;0.75;;;25.20;46.70;;;;;;4952006;28;20211;-57
2023/01/14 10:26:55;;;;;;;1.38;0.70;;;25.20;46.70;;;;;;4955801;28;20222;-56
2023/01/14 10:29:28;;;;;;;1.08;0.70;;;25.20;46.70;;;;;;4952103;28;20241;-55
2023/01/14 10:32:00;;;;;;;1.00;0.68;;;25.20;46.70;;;;;;4952350;28;20205;-56
2023/01/14 10:34:35;;;;;;;0.88;0.70;;;25.20;46.80;;;;;;4940576;28;20216;-57
2023/01/14 10:37:06;;;;;;;1.40;0.73;;;25.20;46.80;;;;;;4940768;29;20218;-56
2023/01/14 10:39:37;;;;;;;1.00;0.70;;;25.10;46.70;;;;;;4954221;28;20199;-56
2023/01/14 10:42:12;;;;;;;0.77;0.77;;;25.10;46.70;;;;;;4946971;28;20780;-56
2023/01/14 10:44:45;;;;;;;1.08;0.77;;;25.10;46.70;;;;;;4962882;28;20221;-56
2023/01/14 10:47:18;;;;;;;0.73;0.57;;;25.10;46.70;;;;;;4951376;28;20695;-56
2023/01/14 10:49:52;;;;;;;1.25;0.80;;;25.10;47.40;;;;;;4951837;28;20234;-55
2023/01/14 10:52:27;;;;;;;1.15;0.70;;;25.10;47.40;;;;;;4951503;28;20742;-56
2023/01/14 10:55:01;;;;;;;1.08;0.70;;;25.10;46.80;;;;;;4951897;28;20229;-56
2023/01/14 10:57:36;;;;;;;0.60;0.60;;;25.00;46.80;;;;;;4951768;28;20191;-55
2023/01/14 11:00:09;;;;;;;1.13;0.60;;;25.00;46.80;;;;;;4952714;28;20658;-54
2023/01/14 11:02:42;;;;;;;1.25;0.73;;;25.00;47.40;;;;;;4951727;28;20194;-54
2023/01/14 11:05:30;;;;;;;0.88;0.75;;;25.00;46.80;;;;;;4953533;28;20195;-54
2023/01/14 11:08:03;;;;;;;1.27;0.70;;;25.00;46.90;;;;;;4955015;28;20218;-56
2023/01/14 11:10:35;;;;;;;1.08;0.90;;;25.00;46.90;;;;;;4955773;28;20242;-55
2023/01/14 11:13:32;;;;;;;0.65;0.60;;;24.90;46.80;;;;;;4955929;28;20190;-55
2023/01/14 11:16:04;;;;;;;0.98;0.80;;;24.90;46.80;;;;;;4955373;28;20218;-56
2023/01/14 11:18:35;;;;;;;0.82;0.60;;;24.90;46.80;;;;;;4956599;28;20198;-54
2023/01/14 11:21:20;;;;;;;0.68;0.63;;;24.90;47.00;;;;;;4955651;28;20199;-55
2023/01/14 11:23:58;;;;;;;0.60;0.60;;;24.90;46.90;;;;;;4955475;28;20220;-54
2023/01/14 11:26:31;;;;;;;0.80;0.77;;;24.90;46.90;;;;;;4955896;28;20222;-55
2023/01/14 11:29:17;;;;;;;1.60;0.73;;;24.90;47.50;;;;;;4956365;28;20250;-54
2023/01/14 11:31:50;;;;;;;0.75;0.70;;;24.90;46.90;;;;;;4955453;28;20540;-56
2023/01/14 11:34:32;;;;;;;1.00;0.60;;;24.90;47.00;;;;;;4955711;28;20199;-55
2023/01/14 11:37:09;;;;;;;1.00;0.73;;;24.80;47.00;;;;;;4968682;28;20214;-56
2023/01/14 11:39:40;;;;;;;0.70;0.70;;;24.80;46.90;;;;;;4956229;28;20590;-52
2023/01/14 11:42:32;;;;;;;1.00;0.60;;;24.80;47.00;;;;;;4936180;29;20207;-53
2023/01/14 11:45:07;;;;;;;1.27;0.73;;;24.70;47.60;;;;;;4936344;29;20208;-53
2023/01/14 11:47:49;;;;;;;0.55;0.55;;;24.80;47.00;;;;;;4936736;29;20203;-54
2023/01/14 11:50:22;;;;;;;0.60;0.60;;;24.80;47.00;;;;;;4936350;29;20574;-55
2023/01/14 11:53:01;;;;;;;1.17;0.85;;;24.70;46.90;;;;;;4935897;29;20200;-55
2023/01/14 11:55:35;;;;;;;0.75;0.70;;;24.70;47.00;;;;;;4936053;29;20226;-55
2023/01/14 11:58:18;;;;;;;0.93;0.80;;;24.70;47.00;;;;;;4936119;29;20663;-57
2023/01/14 12:00:54;;;;;;;0.68;0.65;;;24.70;47.00;;;;;;4935958;29;20316;-56
2023/01/14 12:03:35;;;;;;;0.60;0.60;;;24.70;47.00;;;;;;4935940;29;20218;-56
2023/01/14 12:06:09;;;;;;;0.85;0.60;;;24.70;47.00;;;;;;4935827;29;20834;-56
2023/01/14 12:08:43;;;;;;;0.90;0.63;;;24.70;47.00;;;;;;4936182;29;20570;-55
2023/01/14 12:11:20;;;;;;;0.45;0.45;;;24.60;47.00;;;;;;4947585;29;20195;-56
2023/01/14 12:16:53;;;;;;;0.77;0.70;;;24.60;47.10;;;;;;4954074;28;20241;-56
2023/01/14 12:19:31;;;;;;;0.77;0.60;;;24.60;47.10;;;;;;4955322;28;20217;-57
2023/01/14 12:22:12;;;;;;;1.25;0.82;;;24.60;47.10;;;;;;4955266;28;20203;-55
2023/01/14 12:24:52;;;;;;;1.10;0.82;;;24.60;47.10;;;;;;4955085;28;20202;-56
2023/01/14 12:30:33;;;;;;;0.70;0.70;;;24.50;47.10;;;;;;4954845;28;20231;-54
2023/01/14 12:33:15;;;;;;;0.80;0.70;;;24.50;47.00;;;;;;4952560;29;20206;-55
2023/01/14 12:35:50;;;;;;;0.95;0.80;;;24.50;47.10;;;;;;4955581;28;20214;-56
2023/01/14 12:46:55;;;;;;;0.80;0.60;;;24.50;47.10;;;;;;4954731;28;20262;-51
2023/01/14 12:49:28;;;;;;;0.70;0.60;;;24.40;47.10;;;;;;4954641;28;20733;-56
2023/01/14 12:51:59;;;;;;;0.77;0.60;;;24.40;47.10;;;;;;4954626;28;20206;-56
2023/01/14 12:54:34;;;;;;;0.95;0.75;;;24.40;47.20;;;;;;4954662;28;20199;-56
2023/01/14 12:57:06;;;;;;;0.50;0.50;;;24.40;47.20;;;;;;4953780;28;20225;-55
2023/01/14 12:59:41;;;;;;;0.93;0.60;;;24.40;47.10;;;;;;4954047;28;20198;-55
2023/01/14 13:02:23;;;;;;;0.98;0.70;;;24.40;47.20;;;;;;4954092;28;20202;-56
2023/01/14 13:05:04;;;;;;;1.00;0.75;;;24.30;47.10;;;;;;4953972;28;20706;-56
2023/01/14 13:07:37;;;;;;;1.05;0.73;;;24.30;47.20;;;;;;4953563;28;20261;-56
2023/01/14 13:10:11;;;;;;;0.90;0.60;;;24.30;47.20;;;;;;4953819;28;20237;-56
2023/01/14 13:12:49;;;;;;;1.38;0.60;;;24.30;47.20;;;;;;4954054;28;20213;-56
2023/01/14 13:15:28;;;;;;;0.70;0.60;;;24.30;47.20;;;;;;4953539;28;20214;-56
2023/01/14 13:18:00;;;;;;;0.77;0.73;;;24.30;47.20;;;;;;4969101;28;20216;-55
2023/01/14 13:20:54;;;;;;;0.82;0.70;;;24.30;47.20;;;;;;4972754;28;20210;-55
2023/01/14 13:24:01;;;;;;;0.70;0.68;;;24.20;47.20;;;;;;4972276;28;20198;-56
2023/01/14 13:26:56;;;;;;;0.95;0.60;;;24.30;47.20;;;;;;4952560;28;20273;-56
2023/01/14 13:29:30;;;;;;;0.95;0.80;;;24.30;47.30;;;;;;4973341;28;20222;-55
2023/01/14 13:32:02;;;;;;;0.70;0.65;;;24.20;47.20;;;;;;4973310;28;20677;-56
2023/01/14 13:35:03;;;;;;;0.55;0.55;;;24.20;47.20;;;;;;4973261;28;20194;-55
2023/01/14 13:37:46;;;;;;;0.55;0.50;;;24.20;47.20;;;;;;4973078;28;20252;-56
2023/01/14 13:40:25;;;;;;;1.27;0.70;;;24.20;47.20;;;;;;4967949;28;20210;-55
2023/01/14 13:43:01;;;;;;;0.85;0.68;;;24.20;47.30;;;;;;4953378;28;20202;-57
2023/01/14 13:45:33;;;;;;;0.52;0.52;;;24.20;47.30;;;;;;4952731;28;20210;-56
2023/01/14 13:48:15;;;;;;;0.73;0.60;;;24.20;47.30;;;;;;4953303;28;20253;-54
2023/01/14 13:50:46;;;;;;;0.80;0.63;;;24.10;47.30;;;;;;4953374;28;20227;-56
2023/01/14 13:53:29;;;;;;;0.50;0.50;;;24.20;47.40;;;;;;4953387;28;20663;-55
2023/01/14 13:56:02;;;;;;;0.60;0.60;;;24.10;47.30;;;;;;4952816;28;20218;-57
2023/01/14 13:58:39;;;;;;;0.80;0.60;;;24.10;47.30;;;;;;4952924;28;20283;-57
2023/01/14 14:01:45;;;;;;;0.73;0.70;;;24.10;47.30;;;;;;4953221;28;20203;-57
2023/01/14 14:04:36;;;;;;;0.68;0.68;;;24.10;47.40;;;;;;4952890;28;20277;-55
2023/01/14 14:07:07;;;;;;;0.90;0.60;;;24.10;47.30;;;;;;4952943;28;20233;-56